createdAt,value
2018-05-14T00:01:26.921Z,95.70
2018-05-14T00:03:55.045Z,88.87
2018-05-14T00:06:23.194Z,100.27
2018-05-14T00:08:51.311Z,92.03
2018-05-14T00:11:19.418Z,93.03
2018-05-14T00:13:47.551Z,100.23
2018-05-14T00:16:15.695Z,95.40
2018-05-14T00:18:43.871Z,91.67
2018-05-14T00:21:12.220Z,98.27
2018-05-14T00:23:40.347Z,96.90
2018-05-14T00:26:08.489Z,99.27
2018-05-14T00:28:36.655Z,103.03
2018-05-14T00:31:04.763Z,99.03
2018-05-14T00:33:32.911Z,100.13
2018-05-14T00:36:01.035Z,95.30
2018-05-14T00:38:29.192Z,99.77
2018-05-14T00:40:57.304Z,105.53
2018-05-14T00:43:25.468Z,94.47
2018-05-14T00:45:53.607Z,96.83
2018-05-14T00:48:21.734Z,93.57
2018-05-14T00:50:49.873Z,96.17
2018-05-14T00:53:17.997Z,101.90
2018-05-14T00:55:46.118Z,102.37
2018-05-14T00:58:14.266Z,99.53
2018-05-14T01:00:42.371Z,106.97
2018-05-14T01:03:10.491Z,104.90
2018-05-14T01:05:38.649Z,103.83
2018-05-14T01:08:06.772Z,104.03
2018-05-14T01:10:34.902Z,101.33
2018-05-14T01:13:03.053Z,109.77
2018-05-14T01:15:31.185Z,104.23
2018-05-14T01:17:59.304Z,99.83
2018-05-14T01:20:27.438Z,105.73
2018-05-14T01:22:55.593Z,100.23
2018-05-14T01:25:23.733Z,104.33
2018-05-14T01:27:52.059Z,105.33
2018-05-14T01:30:20.186Z,105.70
2018-05-14T01:32:48.336Z,108.87
2018-05-14T01:35:16.472Z,101.67
2018-05-14T01:37:44.623Z,104.43
2018-05-14T01:40:12.749Z,90.53
2018-05-14T01:42:41.690Z,102.17
2018-05-14T01:45:09.818Z,101.23
2018-05-14T01:47:37.953Z,101.07
2018-05-14T01:50:06.113Z,107.83
2018-05-14T01:52:34.237Z,94.83
2018-05-14T01:55:02.361Z,102.27
2018-05-14T01:57:30.675Z,98.00
2018-05-14T01:59:58.805Z,93.40
2018-05-14T02:02:26.929Z,91.53
2018-05-14T02:04:55.061Z,98.07
2018-05-14T02:07:23.190Z,86.60
2018-05-14T02:09:51.336Z,93.23
2018-05-14T02:12:19.474Z,90.87
2018-05-14T02:14:47.598Z,85.43
2018-05-14T02:17:15.714Z,85.93
2018-05-14T02:19:43.834Z,88.67
2018-05-14T02:22:11.969Z,87.50
2018-05-14T02:24:40.078Z,83.27
2018-05-14T02:27:08.443Z,86.27
2018-05-14T02:29:36.924Z,87.43
2018-05-14T02:32:05.057Z,81.77
2018-05-14T02:34:33.199Z,84.43
2018-05-14T02:37:01.330Z,76.77
2018-05-14T02:39:29.472Z,80.40
2018-05-14T02:41:57.620Z,82.47
2018-05-14T02:44:25.769Z,81.17
2018-05-14T02:46:54.022Z,75.23
2018-05-14T02:49:22.157Z,76.30
2018-05-14T02:51:50.283Z,80.03
2018-05-14T02:54:18.396Z,76.17
2018-05-14T02:56:46.542Z,80.17
2018-05-14T02:59:14.666Z,76.17
2018-05-14T03:01:42.797Z,76.33
2018-05-14T03:04:10.957Z,69.27
2018-05-14T03:06:39.054Z,75.73
2018-05-14T03:09:07.190Z,71.20
2018-05-14T03:11:35.323Z,67.93
2018-05-14T03:14:03.449Z,78.40
2018-05-14T03:16:31.597Z,71.30
2018-05-14T03:18:59.719Z,67.23
2018-05-14T03:21:27.851Z,69.07
2018-05-14T03:23:55.991Z,72.37
2018-05-14T03:26:24.133Z,71.33
2018-05-14T03:28:52.253Z,72.60
2018-05-14T03:31:20.393Z,71.17
2018-05-14T03:33:48.522Z,68.80
2018-05-14T03:36:17.625Z,68.97
2018-05-14T03:38:45.745Z,73.27
2018-05-14T03:41:14.021Z,73.03
2018-05-14T03:43:42.162Z,74.90
2018-05-14T03:46:10.292Z,67.10
2018-05-14T03:48:38.951Z,72.40
2018-05-14T03:51:07.068Z,72.93
2018-05-14T03:53:35.183Z,74.10
2018-05-14T03:56:03.371Z,73.13
2018-05-14T03:58:43.210Z,72.57
2018-05-14T04:01:28.120Z,72.40
2018-05-14T04:04:08.093Z,71.77
2018-05-14T04:06:37.020Z,68.37
2018-05-14T04:09:05.927Z,79.03
2018-05-14T04:11:34.177Z,71.90
2018-05-14T04:14:02.319Z,77.80
2018-05-14T04:16:30.525Z,74.63
2018-05-14T04:18:58.567Z,72.07
2018-05-14T04:21:26.710Z,72.20
2018-05-14T04:23:54.857Z,77.30
2018-05-14T04:26:22.966Z,74.73
2018-05-14T04:28:51.091Z,78.30
2018-05-14T04:31:19.234Z,79.77
2018-05-14T04:33:47.335Z,74.37
2018-05-14T04:36:15.482Z,79.27
2018-05-14T04:38:43.609Z,79.20
2018-05-14T04:41:11.784Z,72.93
2018-05-14T04:43:39.948Z,75.50
2018-05-14T04:46:08.072Z,84.03
2018-05-14T04:48:36.201Z,83.90
2018-05-14T04:51:04.321Z,80.60
2018-05-14T04:53:32.477Z,84.80
2018-05-14T04:56:00.605Z,83.77
2018-05-14T04:58:28.750Z,80.63
2018-05-14T05:00:56.893Z,86.17
2018-05-14T05:03:25.041Z,72.30
2018-05-14T05:05:56.610Z,83.03
2018-05-14T05:08:24.724Z,81.80
2018-05-14T05:10:52.876Z,85.00
2018-05-14T05:13:21.159Z,83.90
2018-05-14T05:15:50.029Z,85.97
2018-05-14T05:18:18.138Z,82.57
2018-05-14T05:20:50.079Z,84.97
2018-05-14T05:23:18.214Z,90.80
2018-05-14T05:25:46.378Z,86.93
2018-05-14T05:28:14.527Z,88.80
2018-05-14T05:30:42.668Z,86.63
2018-05-14T05:33:10.789Z,95.70
2018-05-14T05:35:38.934Z,94.90
2018-05-14T05:38:07.058Z,90.90
2018-05-14T05:40:35.209Z,87.63
2018-05-14T05:43:03.334Z,92.97
2018-05-14T05:45:31.484Z,90.97
2018-05-14T05:47:59.609Z,94.40
2018-05-14T05:50:27.730Z,88.63
2018-05-14T05:52:55.875Z,89.87
2018-05-14T05:55:24.019Z,93.30
2018-05-14T05:57:52.143Z,88.33
2018-05-14T06:00:20.273Z,89.90
2018-05-14T06:02:48.399Z,88.43
2018-05-14T06:05:16.535Z,90.03
2018-05-14T06:07:44.665Z,84.03
2018-05-14T06:10:16.637Z,87.40
2018-05-14T06:12:44.769Z,82.60
2018-05-14T06:15:12.883Z,79.87
2018-05-14T06:17:41.080Z,85.77
2018-05-14T06:20:09.470Z,88.87
2018-05-14T06:22:37.660Z,87.73
2018-05-14T06:25:05.868Z,87.40
2018-05-14T06:27:34.016Z,86.57
2018-05-14T06:30:02.132Z,80.87
2018-05-14T06:32:30.272Z,84.43
2018-05-14T06:34:58.413Z,81.33
2018-05-14T06:37:26.717Z,84.30
2018-05-14T06:39:54.675Z,86.07
2018-05-14T06:42:22.837Z,77.87
2018-05-14T06:44:50.976Z,80.67
2018-05-14T06:47:19.112Z,81.83
2018-05-14T06:49:47.543Z,88.70
2018-05-14T06:52:15.555Z,84.97
2018-05-14T06:54:43.707Z,83.03
2018-05-14T06:57:11.831Z,86.90
2018-05-14T06:59:39.946Z,87.00
2018-05-14T07:02:08.077Z,82.17
2018-05-14T07:04:36.226Z,85.70
2018-05-14T07:07:04.333Z,82.77
2018-05-14T07:09:32.439Z,81.93
2018-05-14T07:12:00.575Z,80.10
2018-05-14T07:14:28.710Z,81.00
2018-05-14T07:16:56.868Z,80.67
2018-05-14T07:19:25.004Z,76.63
2018-05-14T07:21:53.146Z,78.80
2018-05-14T07:24:21.265Z,80.90
2018-05-14T07:26:49.403Z,79.17
2018-05-14T07:29:17.529Z,81.57
2018-05-14T07:31:45.652Z,80.47
2018-05-14T07:34:13.837Z,79.07
2018-05-14T07:36:41.943Z,79.90
2018-05-14T07:39:10.183Z,81.57
2018-05-14T07:41:38.226Z,77.43
2018-05-14T07:44:06.344Z,77.70
2018-05-14T07:46:34.473Z,81.27
2018-05-14T07:49:02.617Z,77.93
2018-05-14T07:51:30.740Z,81.40
2018-05-14T07:53:58.853Z,82.73
2018-05-14T07:56:26.994Z,83.40
2018-05-14T07:58:55.121Z,73.87
2018-05-14T08:01:23.249Z,77.63
2018-05-14T08:03:51.385Z,80.00
2018-05-14T08:06:19.533Z,77.30
2018-05-14T08:08:47.671Z,76.50
2018-05-14T08:11:15.807Z,75.17
2018-05-14T08:13:43.933Z,74.33
2018-05-14T08:16:12.077Z,78.60
2018-05-14T08:18:40.214Z,74.87
2018-05-14T08:21:08.355Z,75.57
2018-05-14T08:23:36.523Z,75.23
2018-05-14T08:26:04.785Z,73.37
2018-05-14T08:28:32.912Z,71.83
2018-05-14T08:31:01.056Z,72.53
2018-05-14T08:33:29.174Z,74.43
2018-05-14T08:35:57.291Z,74.40
2018-05-14T08:38:25.417Z,74.90
2018-05-14T08:40:53.576Z,76.43
2018-05-14T08:43:21.702Z,79.20
2018-05-14T08:45:49.823Z,71.93
2018-05-14T08:48:17.979Z,75.10
2018-05-14T08:50:46.083Z,69.43
2018-05-14T08:53:14.231Z,70.77
2018-05-14T08:55:42.352Z,66.80
2018-05-14T08:58:10.463Z,68.00
2018-05-14T09:00:38.667Z,69.67
2018-05-14T09:03:06.756Z,71.37
2018-05-14T09:05:34.880Z,65.20
2018-05-14T09:08:03.001Z,64.13
2018-05-14T09:10:31.196Z,64.33
2018-05-14T09:12:59.310Z,66.43
2018-05-14T09:15:27.459Z,65.47
2018-05-14T09:17:55.611Z,66.63
2018-05-14T09:20:23.756Z,72.60
2018-05-14T09:22:51.876Z,63.83
2018-05-14T09:25:20.040Z,69.50
2018-05-14T09:27:48.143Z,65.67
2018-05-14T09:30:16.269Z,65.70
2018-05-14T09:32:44.554Z,58.73
2018-05-14T09:35:12.699Z,58.77
2018-05-14T09:37:40.822Z,60.83
2018-05-14T09:40:09.287Z,62.50
2018-05-14T09:42:37.435Z,58.63
2018-05-14T09:45:05.557Z,64.93
2018-05-14T09:47:33.709Z,55.30
2018-05-14T09:50:02.382Z,58.57
2018-05-14T09:52:30.503Z,53.77
2018-05-14T09:54:58.662Z,52.37
2018-05-14T09:57:26.775Z,56.07
2018-05-14T09:59:54.886Z,51.57
2018-05-14T10:02:23.035Z,54.37
2018-05-14T10:04:51.189Z,53.27
2018-05-14T10:07:19.377Z,50.83
2018-05-14T10:09:47.521Z,49.67
2018-05-14T10:12:15.635Z,51.17
2018-05-14T10:14:43.780Z,53.47
2018-05-14T10:17:11.924Z,50.47
2018-05-14T10:19:40.053Z,45.57
2018-05-14T10:22:08.159Z,46.53
2018-05-14T10:24:36.315Z,46.73
2018-05-14T10:27:04.431Z,44.60
2018-05-14T10:29:32.575Z,48.70
2018-05-14T10:32:00.773Z,44.20
2018-05-14T10:34:28.852Z,47.40
2018-05-14T10:36:56.977Z,43.77
2018-05-14T10:39:25.114Z,45.83
2018-05-14T10:41:53.264Z,45.57
2018-05-14T10:44:21.361Z,42.40
2018-05-14T10:46:49.589Z,43.53
2018-05-14T10:49:17.623Z,42.80
2018-05-14T10:51:45.790Z,36.00
2018-05-14T10:54:13.913Z,38.93
2018-05-14T10:56:45.734Z,35.70
2018-05-14T10:59:14.012Z,32.73
2018-05-14T11:01:42.169Z,38.33
2018-05-14T11:04:10.289Z,38.97
2018-05-14T11:06:38.428Z,36.83
2018-05-14T11:09:10.115Z,35.60
2018-05-14T11:11:38.225Z,36.37
2018-05-14T11:14:06.371Z,32.03
2018-05-14T11:16:34.513Z,33.77
2018-05-14T11:19:02.635Z,32.87
2018-05-14T11:21:30.779Z,34.70
2018-05-14T11:23:58.936Z,33.10
2018-05-14T11:26:27.057Z,35.43
2018-05-14T11:28:55.181Z,26.20
2018-05-14T11:31:23.317Z,26.30
2018-05-14T11:33:51.591Z,24.37
2018-05-14T11:36:19.748Z,26.60
2018-05-14T11:38:47.879Z,26.03
2018-05-14T11:41:16.013Z,23.90
2018-05-14T11:43:44.150Z,23.87
2018-05-14T11:46:12.299Z,28.73
2018-05-14T11:48:40.563Z,27.13
2018-05-14T11:51:08.734Z,20.90
2018-05-14T11:53:36.883Z,24.67
2018-05-14T11:56:05.019Z,25.13
2018-05-14T11:58:33.125Z,26.93
2018-05-14T12:01:01.317Z,27.57
2018-05-14T12:03:29.431Z,22.90
2018-05-14T12:05:57.559Z,23.77
2018-05-14T12:08:25.697Z,22.27
2018-05-14T12:10:53.841Z,19.37
2018-05-14T12:13:21.970Z,17.57
2018-05-14T12:15:50.121Z,16.10
2018-05-14T12:18:18.235Z,19.97
2018-05-14T12:20:46.383Z,18.97
2018-05-14T12:23:14.724Z,17.20
2018-05-14T12:25:42.851Z,16.27
2018-05-14T12:28:10.947Z,19.00
2018-05-14T12:30:39.100Z,17.37
2018-05-14T12:33:07.241Z,18.10
2018-05-14T12:35:35.365Z,15.70
2018-05-14T12:38:03.506Z,17.10
2018-05-14T12:40:31.652Z,16.30
2018-05-14T12:42:59.795Z,15.53
2018-05-14T12:45:28.006Z,17.03
2018-05-14T12:47:56.152Z,15.57
2018-05-14T12:50:25.174Z,14.33
2018-05-14T12:52:53.308Z,20.13
2018-05-14T12:55:21.438Z,19.03
2018-05-14T12:57:49.570Z,15.20
2018-05-14T13:00:17.722Z,16.63
2018-05-14T13:02:45.878Z,13.87
2018-05-14T13:05:14.157Z,14.53
2018-05-14T13:07:42.319Z,12.27
2018-05-14T13:10:10.441Z,14.73
2018-05-14T13:12:38.568Z,12.50
2018-05-14T13:15:09.755Z,14.83
2018-05-14T13:17:37.869Z,11.23
2018-05-14T13:20:05.988Z,8.83
2018-05-14T13:22:34.131Z,11.80
2018-05-14T13:25:02.234Z,14.33
2018-05-14T13:27:30.379Z,10.90
2018-05-14T13:29:58.817Z,9.27
2018-05-14T13:32:26.955Z,10.27
2018-05-14T13:34:55.073Z,10.53
2018-05-14T13:37:23.296Z,10.97
2018-05-14T13:39:51.334Z,9.67
2018-05-14T13:42:19.484Z,13.47
2018-05-14T13:44:47.613Z,9.90
2018-05-14T13:47:15.733Z,12.17
2018-05-14T13:49:43.864Z,8.10
2018-05-14T13:52:11.978Z,7.30
2018-05-14T13:54:40.084Z,10.63
2018-05-14T13:57:08.235Z,11.90
2018-05-14T13:59:36.365Z,9.03
2018-05-14T14:02:04.462Z,8.87
2018-05-14T14:04:32.579Z,8.40
2018-05-14T14:07:01.613Z,8.77
2018-05-14T14:09:29.707Z,8.10
2018-05-14T14:11:57.876Z,8.77
2018-05-14T14:14:25.988Z,6.73
2018-05-14T14:16:54.102Z,6.50
2018-05-14T14:19:22.297Z,8.73
2018-05-14T14:21:50.412Z,7.33
2018-05-14T14:24:19.744Z,9.03
2018-05-14T14:26:47.707Z,11.57
2018-05-14T14:29:15.884Z,8.57
2018-05-14T14:31:44.009Z,10.93
2018-05-14T14:34:12.133Z,7.57
2018-05-14T14:36:40.283Z,9.23
2018-05-14T14:39:08.387Z,8.20
2018-05-14T14:41:36.512Z,7.40
2018-05-14T14:44:08.261Z,7.97
2018-05-14T14:46:36.313Z,14.07
2018-05-14T14:49:04.458Z,8.07
2018-05-14T14:51:32.562Z,8.70
2018-05-14T14:54:00.685Z,7.10
2018-05-14T14:56:28.824Z,6.17
2018-05-14T14:58:57.157Z,7.80
2018-05-14T15:01:25.272Z,7.90
2018-05-14T15:03:53.396Z,6.73
2018-05-14T15:06:21.700Z,10.47
2018-05-14T15:08:49.816Z,8.27
2018-05-14T15:11:17.933Z,9.93
2018-05-14T15:13:46.303Z,6.27
2018-05-14T15:16:14.422Z,6.30
2018-05-14T15:18:42.565Z,10.17
2018-05-14T15:21:10.698Z,8.00
2018-05-14T15:23:38.814Z,9.17
2018-05-14T15:26:06.994Z,9.13
2018-05-14T15:28:35.147Z,5.50
2018-05-14T15:31:03.336Z,6.50
2018-05-14T15:33:31.543Z,6.37
2018-05-14T15:36:00.083Z,7.03
2018-05-14T15:38:28.217Z,8.60
2018-05-14T15:40:56.355Z,5.90
2018-05-14T15:43:24.485Z,5.90
2018-05-14T15:45:52.604Z,6.27
2018-05-14T15:48:20.716Z,6.17
2018-05-14T15:50:48.831Z,8.20
2018-05-14T15:53:16.955Z,6.30
2018-05-14T15:55:45.074Z,9.47
2018-05-14T15:58:19.761Z,6.60
2018-05-14T16:00:47.957Z,5.10
2018-05-14T16:03:16.091Z,8.20
2018-05-14T16:05:44.208Z,8.03
2018-05-14T16:08:12.344Z,7.03
2018-05-14T16:10:40.442Z,6.53
2018-05-14T16:13:08.566Z,8.33
2018-05-14T16:15:36.677Z,7.23
2018-05-14T16:18:04.816Z,6.93
2018-05-14T16:20:32.937Z,6.30
2018-05-14T16:23:01.056Z,9.03
2018-05-14T16:25:29.188Z,6.30
2018-05-14T16:27:57.338Z,5.80
2018-05-14T16:30:25.468Z,6.40
2018-05-14T16:32:53.589Z,5.83
2018-05-14T16:35:21.746Z,11.13
2018-05-14T16:37:49.838Z,6.07
2018-05-14T16:40:17.975Z,6.37
2018-05-14T16:42:46.120Z,5.00
2018-05-14T16:45:14.742Z,8.60
2018-05-14T16:47:42.859Z,8.87
2018-05-14T16:50:11.017Z,8.40
2018-05-14T16:52:39.175Z,6.30
2018-05-14T16:55:07.310Z,8.73
2018-05-14T16:57:35.519Z,8.07
2018-05-14T17:00:03.636Z,6.00
2018-05-14T17:02:31.773Z,7.20
2018-05-14T17:04:59.945Z,8.90
2018-05-14T17:07:28.056Z,5.23
2018-05-14T17:09:56.165Z,6.60
2018-05-14T17:12:24.295Z,5.27
2018-05-14T17:14:52.443Z,8.13
2018-05-14T17:17:20.625Z,5.57
2018-05-14T17:19:48.707Z,8.50
2018-05-14T17:22:16.825Z,6.93
2018-05-14T17:24:44.946Z,8.00
2018-05-14T17:27:13.095Z,7.03
2018-05-14T17:29:41.214Z,5.20
2018-05-14T17:32:09.339Z,6.53
2018-05-14T17:34:37.469Z,5.80
2018-05-14T17:37:05.608Z,5.10
2018-05-14T17:39:33.722Z,6.83
2018-05-14T17:42:01.874Z,6.00
2018-05-14T17:44:29.993Z,7.07
2018-05-14T17:46:58.181Z,6.27
2018-05-14T17:49:26.472Z,8.57
2018-05-14T17:51:54.585Z,5.43
2018-05-14T17:54:22.691Z,8.73
2018-05-14T17:56:50.821Z,7.43
2018-05-14T17:59:18.972Z,6.20
2018-05-14T18:01:47.300Z,6.40
2018-05-14T18:04:15.411Z,6.53
2018-05-14T18:06:43.537Z,6.70
2018-05-14T18:09:11.656Z,7.13
2018-05-14T18:11:39.808Z,7.50
2018-05-14T18:14:07.935Z,7.07
2018-05-14T18:16:36.046Z,6.20
2018-05-14T18:19:04.192Z,6.87
2018-05-14T18:21:38.458Z,6.50
2018-05-14T18:24:06.297Z,4.43
2018-05-14T18:26:40.037Z,7.50
2018-05-14T18:29:08.150Z,8.50
2018-05-14T18:31:42.005Z,5.50
2018-05-14T18:34:10.153Z,8.80
2018-05-14T18:36:38.254Z,8.53
2018-05-14T18:39:06.428Z,5.40
2018-05-14T18:41:34.515Z,4.87
2018-05-14T18:44:02.681Z,6.63
2018-05-14T18:46:30.868Z,7.20
2018-05-14T18:48:58.928Z,5.67
2018-05-14T18:51:27.045Z,5.33
2018-05-14T18:53:55.173Z,5.20
2018-05-14T18:56:23.308Z,5.70
2018-05-14T18:58:51.424Z,6.13
2018-05-14T19:01:19.563Z,5.83
2018-05-14T19:03:47.702Z,6.53
2018-05-14T19:06:16.726Z,5.87
2018-05-14T19:08:44.842Z,6.20
2018-05-14T19:11:18.602Z,8.10
2018-05-14T19:13:46.721Z,7.73
2018-05-14T19:16:20.562Z,9.67
2018-05-14T19:18:48.686Z,8.10
2018-05-14T19:21:16.802Z,7.93
2018-05-14T19:23:50.672Z,10.40
2018-05-14T19:26:18.784Z,8.77
2018-05-14T19:28:52.502Z,8.00
2018-05-14T19:31:20.622Z,7.47
2018-05-14T19:33:54.329Z,9.40
2018-05-14T19:36:22.445Z,8.90
2018-05-14T19:38:50.558Z,8.67
2018-05-14T19:41:18.686Z,6.80
2018-05-14T19:43:46.803Z,7.07
2018-05-14T19:46:14.935Z,5.97
2018-05-14T19:48:43.069Z,8.33
2018-05-14T19:51:11.196Z,6.27
2018-05-14T19:53:39.309Z,6.67
2018-05-14T19:56:07.454Z,6.33
2018-05-14T19:58:35.570Z,7.93
2018-05-14T20:01:04.352Z,10.70
2018-05-14T20:03:32.494Z,11.23
2018-05-14T20:06:00.553Z,7.40
2018-05-14T20:08:28.673Z,9.93
2018-05-14T20:10:56.801Z,7.03
2018-05-14T20:13:24.943Z,7.70
2018-05-14T20:15:53.052Z,10.17
2018-05-14T20:18:21.167Z,7.90
2018-05-14T20:20:49.304Z,11.87
2018-05-14T20:23:17.488Z,10.33
2018-05-14T20:25:45.628Z,13.27
2018-05-14T20:28:13.754Z,8.47
2018-05-14T20:30:41.937Z,9.00
2018-05-14T20:33:10.088Z,10.20
2018-05-14T20:35:38.189Z,13.57
2018-05-14T20:38:06.358Z,12.77
2018-05-14T20:40:34.527Z,13.00
2018-05-14T20:43:02.652Z,8.67
2018-05-14T20:45:30.766Z,9.73
2018-05-14T20:47:58.916Z,10.67
2018-05-14T20:50:27.048Z,9.10
2018-05-14T20:52:55.280Z,8.60
2018-05-14T20:55:23.370Z,6.87
2018-05-14T20:57:54.747Z,7.90
2018-05-14T21:00:22.881Z,10.03
2018-05-14T21:02:51.033Z,15.70
2018-05-14T21:05:19.193Z,14.47
2018-05-14T21:07:52.834Z,14.97
2018-05-14T21:10:20.963Z,9.97
2018-05-14T21:12:49.085Z,10.00
2018-05-14T21:15:17.236Z,8.80
2018-05-14T21:17:45.349Z,8.07
2018-05-14T21:20:13.485Z,8.57
2018-05-14T21:22:41.623Z,9.20
2018-05-14T21:25:09.769Z,9.10
2018-05-14T21:27:37.923Z,9.47
2018-05-14T21:30:06.181Z,9.87
2018-05-14T21:32:34.348Z,9.80
2018-05-14T21:35:02.483Z,10.43
2018-05-14T21:37:30.627Z,12.43
2018-05-14T21:39:58.801Z,9.03
2018-05-14T21:42:26.895Z,13.27
2018-05-14T21:44:55.054Z,9.40
2018-05-14T21:47:23.183Z,11.67
2018-05-14T21:49:51.279Z,9.43
2018-05-14T21:52:19.417Z,10.80
2018-05-14T21:54:47.575Z,11.27
2018-05-14T21:57:15.737Z,10.67
2018-05-14T21:59:44.090Z,13.77
2018-05-14T22:02:12.211Z,9.77
2018-05-14T22:04:40.315Z,9.23
2018-05-14T22:07:08.449Z,9.40
2018-05-14T22:09:39.504Z,13.20
2018-05-14T22:12:07.684Z,9.00
2018-05-14T22:14:35.830Z,9.33
2018-05-14T22:17:03.928Z,9.93
2018-05-14T22:19:32.053Z,9.80
2018-05-14T22:22:00.415Z,10.17
2018-05-14T22:24:28.528Z,9.50
2018-05-14T22:26:56.671Z,10.33
2018-05-14T22:29:24.806Z,10.60
2018-05-14T22:31:52.919Z,9.50
2018-05-14T22:34:21.068Z,8.17
2018-05-14T22:36:49.174Z,10.47
2018-05-14T22:39:17.308Z,10.77
2018-05-14T22:41:45.410Z,8.40
2018-05-14T22:44:13.535Z,11.57
2018-05-14T22:46:41.647Z,10.40
2018-05-14T22:49:09.747Z,9.60
2018-05-14T22:51:37.867Z,12.87
2018-05-14T22:54:06.039Z,9.97
2018-05-14T22:56:34.135Z,9.30
2018-05-14T22:59:02.343Z,9.83
2018-05-14T23:01:30.510Z,10.47
2018-05-14T23:03:58.615Z,8.53
2018-05-14T23:06:26.901Z,12.60
2018-05-14T23:08:55.034Z,10.50
2018-05-14T23:11:23.147Z,10.87
2018-05-14T23:13:51.267Z,11.37
2018-05-14T23:16:19.377Z,9.97
2018-05-14T23:18:47.494Z,13.93
2018-05-14T23:21:15.615Z,14.73
2018-05-14T23:23:47.087Z,10.43
2018-05-14T23:26:15.199Z,12.67
2018-05-14T23:28:43.322Z,10.10
2018-05-14T23:31:11.431Z,11.70
2018-05-14T23:33:39.544Z,13.23
2018-05-14T23:36:07.667Z,12.07
2018-05-14T23:38:35.792Z,10.20
2018-05-14T23:41:03.911Z,11.67
2018-05-14T23:43:32.019Z,9.60
2018-05-14T23:46:00.131Z,10.13
2018-05-14T23:48:28.238Z,9.97
2018-05-14T23:50:56.589Z,11.33
2018-05-14T23:53:24.700Z,10.33
2018-05-14T23:55:52.802Z,9.80
2018-05-14T23:58:20.922Z,9.00
